createdAt,value
2018-04-24T00:00:55.890Z,11.60
2018-04-24T00:01:55.923Z,11.20
2018-04-24T00:02:55.958Z,10.80
2018-04-24T00:03:55.992Z,10.20
2018-04-24T00:04:56.026Z,11.40
2018-04-24T00:05:56.061Z,11.40
2018-04-24T00:06:56.096Z,11.20
2018-04-24T00:07:56.130Z,10.80
2018-04-24T00:08:56.162Z,10.90
2018-04-24T00:09:56.286Z,10.20
2018-04-24T00:10:56.232Z,11.50
2018-04-24T00:11:56.266Z,11.60
2018-04-24T00:12:56.304Z,10.90
2018-04-24T00:13:56.334Z,10.50
2018-04-24T00:14:56.369Z,10.30
2018-04-24T00:15:56.402Z,11.50
2018-04-24T00:16:56.439Z,11.30
2018-04-24T00:17:56.470Z,11.50
2018-04-24T00:18:56.506Z,11.30
2018-04-24T00:19:56.540Z,12.40
2018-04-24T00:20:56.572Z,11.70
2018-04-24T00:21:56.609Z,11.40
2018-04-24T00:22:56.641Z,11.40
2018-04-24T00:23:56.677Z,12.20
2018-04-24T00:24:56.708Z,11.30
2018-04-24T00:25:56.747Z,11.00
2018-04-24T00:26:56.779Z,10.80
2018-04-24T00:27:56.813Z,11.20
2018-04-24T00:28:56.847Z,10.50
2018-04-24T00:29:56.880Z,11.20
2018-04-24T00:30:56.916Z,11.00
2018-04-24T00:31:56.950Z,11.50
2018-04-24T00:32:56.983Z,11.50
2018-04-24T00:33:57.017Z,11.60
2018-04-24T00:34:57.053Z,11.60
2018-04-24T00:35:57.086Z,11.20
2018-04-24T00:36:57.119Z,10.90
2018-04-24T00:37:57.152Z,11.80
2018-04-24T00:38:57.188Z,12.10
2018-04-24T00:39:57.221Z,11.40
2018-04-24T00:40:57.255Z,10.30
2018-04-24T00:41:57.290Z,10.10
2018-04-24T00:42:57.323Z,11.50
2018-04-24T00:43:57.358Z,10.60
2018-04-24T00:44:57.390Z,10.10
2018-04-24T00:45:57.453Z,11.30
2018-04-24T00:46:57.459Z,10.30
2018-04-24T00:47:57.492Z,10.80
2018-04-24T00:48:57.530Z,10.60
2018-04-24T00:49:57.564Z,11.30
2018-04-24T00:50:57.595Z,11.70
2018-04-24T00:51:57.628Z,12.40
2018-04-24T00:52:57.662Z,11.30
2018-04-24T00:53:57.695Z,11.10
2018-04-24T00:54:57.730Z,11.20
2018-04-24T00:55:57.765Z,10.90
2018-04-24T00:56:57.799Z,10.60
2018-04-24T00:57:57.833Z,10.40
2018-04-24T00:58:57.866Z,12.10
2018-04-24T00:59:57.900Z,10.90
2018-04-24T01:00:57.934Z,12.80
2018-04-24T01:01:57.967Z,12.50
2018-04-24T01:02:58.001Z,10.50
2018-04-24T01:03:58.035Z,11.10
2018-04-24T01:04:58.073Z,11.20
2018-04-24T01:05:58.102Z,10.50
2018-04-24T01:06:58.136Z,11.00
2018-04-24T01:07:58.171Z,11.70
2018-04-24T01:08:58.207Z,10.90
2018-04-24T01:09:58.239Z,11.30
2018-04-24T01:10:58.273Z,9.30
2018-04-24T01:11:58.307Z,11.10
2018-04-24T01:12:58.342Z,11.50
2018-04-24T01:13:58.375Z,11.40
2018-04-24T01:14:58.410Z,10.60
2018-04-24T01:15:58.443Z,9.40
2018-04-24T01:16:58.476Z,10.50
2018-04-24T01:17:58.509Z,10.70
2018-04-24T01:18:58.545Z,10.80
2018-04-24T01:19:58.578Z,10.90
2018-04-24T01:20:58.613Z,11.70
2018-04-24T01:21:58.647Z,11.50
2018-04-24T01:22:58.680Z,12.30
2018-04-24T01:23:58.715Z,12.90
2018-04-24T01:24:58.748Z,12.00
2018-04-24T01:25:58.783Z,12.90
2018-04-24T01:26:58.819Z,12.20
2018-04-24T01:27:58.850Z,12.50
2018-04-24T01:28:58.884Z,12.00
2018-04-24T01:29:58.919Z,12.80
2018-04-24T01:30:58.952Z,12.50
2018-04-24T01:31:58.986Z,10.60
2018-04-24T01:32:59.020Z,12.10
2018-04-24T01:33:59.054Z,12.10
2018-04-24T01:34:59.088Z,12.20
2018-04-24T01:35:59.122Z,11.90
2018-04-24T01:36:59.155Z,13.00
2018-04-24T01:37:59.190Z,12.90
2018-04-24T01:38:59.223Z,12.60
2018-04-24T01:39:59.258Z,12.70
2018-04-24T01:40:59.290Z,11.70
2018-04-24T01:41:59.323Z,10.80
2018-04-24T01:42:59.358Z,11.40
2018-04-24T01:43:59.396Z,12.60
2018-04-24T01:44:59.426Z,12.20
2018-04-24T01:45:59.459Z,12.80
2018-04-24T01:46:59.493Z,12.40
2018-04-24T01:47:59.529Z,12.40
2018-04-24T01:48:59.562Z,12.60
2018-04-24T01:49:59.594Z,12.50
2018-04-24T01:50:59.629Z,13.50
2018-04-24T01:51:59.669Z,13.50
2018-04-24T01:52:59.696Z,14.40
2018-04-24T01:53:59.730Z,14.50
2018-04-24T01:54:59.764Z,13.50
2018-04-24T01:55:59.798Z,13.00
2018-04-24T01:56:59.831Z,13.30
2018-04-24T01:57:59.871Z,12.90
2018-04-24T01:58:59.897Z,11.90
2018-04-24T01:59:59.932Z,11.80
2018-04-24T02:00:59.964Z,11.90
2018-04-24T02:01:59.999Z,12.20
2018-04-24T02:03:00.032Z,12.60
2018-04-24T02:04:00.066Z,12.30
2018-04-24T02:05:00.099Z,11.40
2018-04-24T02:06:00.132Z,11.40
2018-04-24T02:07:00.167Z,11.70
2018-04-24T02:08:00.201Z,12.30
2018-04-24T02:09:00.234Z,12.30
2018-04-24T02:10:00.266Z,13.40
2018-04-24T02:11:00.300Z,12.80
2018-04-24T02:12:00.333Z,12.10
2018-04-24T02:13:00.365Z,11.30
2018-04-24T02:14:00.400Z,10.90
2018-04-24T02:15:00.434Z,11.70
2018-04-24T02:16:00.466Z,11.80
2018-04-24T02:17:00.499Z,12.70
2018-04-24T02:18:00.532Z,13.40
2018-04-24T02:19:00.566Z,14.70
2018-04-24T02:20:00.600Z,17.80
2018-04-24T02:21:00.632Z,17.80
2018-04-24T02:22:00.667Z,16.50
2018-04-24T02:23:00.700Z,14.90
2018-04-24T02:24:00.808Z,11.80
2018-04-24T02:25:00.845Z,15.10
2018-04-24T02:26:00.798Z,14.00
2018-04-24T02:27:00.832Z,14.40
2018-04-24T02:28:00.866Z,14.10
2018-04-24T02:29:00.897Z,13.40
2018-04-24T02:30:00.937Z,13.40
2018-04-24T02:31:00.966Z,13.80
2018-04-24T02:32:00.998Z,14.10
2018-04-24T02:33:01.039Z,14.00
2018-04-24T02:34:01.064Z,14.90
2018-04-24T02:35:01.099Z,13.10
2018-04-24T02:36:01.130Z,13.90
2018-04-24T02:37:01.163Z,11.00
2018-04-24T02:38:01.200Z,9.30
2018-04-24T02:39:01.231Z,10.00
2018-04-24T02:40:01.270Z,12.00
2018-04-24T02:41:01.296Z,10.00
2018-04-24T02:42:07.597Z,11.00
2018-04-24T02:43:01.362Z,10.70
2018-04-24T02:44:01.396Z,12.40
2018-04-24T02:45:01.427Z,12.30
2018-04-24T02:46:01.461Z,12.80
2018-04-24T02:47:01.493Z,11.20
2018-04-24T02:48:01.527Z,11.10
2018-04-24T02:49:01.559Z,10.90
2018-04-24T02:50:01.592Z,10.30
2018-04-24T02:51:01.629Z,12.60
2018-04-24T02:52:01.658Z,12.00
2018-04-24T02:53:01.692Z,12.50
2018-04-24T02:54:01.724Z,13.30
2018-04-24T02:55:01.763Z,13.00
2018-04-24T02:56:01.790Z,13.60
2018-04-24T02:57:01.823Z,14.50
2018-04-24T02:58:01.864Z,15.40
2018-04-24T02:59:01.893Z,14.90
2018-04-24T03:00:01.927Z,14.80
2018-04-24T03:01:01.954Z,13.90
2018-04-24T03:02:01.991Z,13.20
2018-04-24T03:03:02.022Z,12.50
2018-04-24T03:04:02.055Z,14.50
2018-04-24T03:05:02.087Z,15.40
2018-04-24T03:06:02.120Z,13.90
2018-04-24T03:07:02.153Z,14.20
2018-04-24T03:08:02.186Z,14.50
2018-04-24T03:09:02.219Z,13.40
2018-04-24T03:10:02.254Z,14.10
2018-04-24T03:11:02.284Z,14.40
2018-04-24T03:12:02.319Z,14.00
2018-04-24T03:13:02.352Z,13.80
2018-04-24T03:14:02.384Z,14.40
2018-04-24T03:15:02.416Z,13.20
2018-04-24T03:16:02.462Z,14.20
2018-04-24T03:17:02.487Z,13.60
2018-04-24T03:18:02.516Z,14.50
2018-04-24T03:19:02.565Z,13.40
2018-04-24T03:20:02.583Z,13.60
2018-04-24T03:21:02.615Z,12.50
2018-04-24T03:22:02.648Z,12.00
2018-04-24T03:23:02.681Z,12.70
2018-04-24T03:24:02.714Z,12.30
2018-04-24T03:25:02.749Z,11.30
2018-04-24T03:26:02.782Z,11.50
2018-04-24T03:27:02.814Z,11.90
2018-04-24T03:28:02.848Z,13.40
2018-04-24T03:29:02.881Z,13.50
2018-04-24T03:30:02.919Z,13.40
2018-04-24T03:31:02.949Z,12.80
2018-04-24T03:32:02.982Z,11.10
2018-04-24T03:33:03.014Z,11.90
2018-04-24T03:34:03.048Z,11.90
2018-04-24T03:35:03.081Z,10.80
2018-04-24T03:36:03.113Z,11.90
2018-04-24T03:37:03.147Z,15.20
2018-04-24T03:38:03.180Z,17.80
2018-04-24T03:39:03.215Z,18.90
2018-04-24T03:40:03.247Z,21.40
2018-04-24T03:41:03.281Z,22.00
2018-04-24T03:42:03.314Z,22.30
2018-04-24T03:43:03.348Z,22.20
2018-04-24T03:44:03.381Z,23.50
2018-04-24T03:45:03.412Z,23.50
2018-04-24T03:46:03.446Z,25.40
2018-04-24T03:47:03.480Z,26.10
2018-04-24T03:48:03.512Z,25.40
2018-04-24T03:49:03.547Z,25.30
2018-04-24T03:50:03.579Z,26.70
2018-04-24T03:51:03.671Z,25.30
2018-04-24T03:52:03.652Z,25.90
2018-04-24T03:53:03.678Z,24.90
2018-04-24T03:54:03.712Z,29.20
2018-04-24T03:55:03.748Z,26.30
2018-04-24T03:56:03.780Z,26.10
2018-04-24T03:57:03.813Z,26.00
2018-04-24T03:58:03.846Z,24.90
2018-04-24T03:59:03.878Z,24.90
2018-04-24T04:00:03.914Z,24.80
2018-04-24T04:01:03.945Z,23.40
2018-04-24T04:02:03.978Z,19.90
2018-04-24T04:03:04.015Z,20.00
2018-04-24T04:04:04.046Z,17.90
2018-04-24T04:05:04.083Z,17.50
2018-04-24T04:06:04.112Z,18.70
2018-04-24T04:07:04.154Z,17.00
2018-04-24T04:08:04.179Z,20.00
2018-04-24T04:09:04.214Z,19.90
2018-04-24T04:10:04.246Z,20.00
2018-04-24T04:11:04.279Z,19.80
2018-04-24T04:12:04.312Z,18.70
2018-04-24T04:13:04.345Z,18.40
2018-04-24T04:14:04.378Z,19.10
2018-04-24T04:15:04.412Z,19.00
2018-04-24T04:16:04.446Z,17.50
2018-04-24T04:17:04.478Z,17.20
2018-04-24T04:18:04.510Z,18.00
2018-04-24T04:19:04.544Z,17.70
2018-04-24T04:20:04.577Z,17.80
2018-04-24T04:21:04.620Z,17.20
2018-04-24T04:22:04.645Z,15.30
2018-04-24T04:23:04.678Z,14.80
2018-04-24T04:24:04.712Z,15.90
2018-04-24T04:25:04.743Z,15.10
2018-04-24T04:26:04.779Z,14.00
2018-04-24T04:27:04.808Z,15.80
2018-04-24T04:28:04.843Z,15.60
2018-04-24T04:29:04.878Z,14.80
2018-04-24T04:30:04.908Z,14.60
2018-04-24T04:31:04.941Z,15.10
2018-04-24T04:32:04.973Z,15.60
2018-04-24T04:33:05.008Z,14.80
2018-04-24T04:34:05.041Z,14.50
2018-04-24T04:35:05.073Z,13.90
2018-04-24T04:36:05.107Z,13.00
2018-04-24T04:37:05.139Z,13.60
2018-04-24T04:38:05.173Z,16.40
2018-04-24T04:39:05.207Z,17.20
2018-04-24T04:40:05.240Z,17.40
2018-04-24T04:41:05.272Z,18.30
2018-04-24T04:42:05.304Z,18.00
2018-04-24T04:43:05.339Z,19.00
2018-04-24T04:44:05.373Z,18.20
2018-04-24T04:45:05.404Z,18.90
2018-04-24T04:46:05.439Z,18.60
2018-04-24T04:47:05.476Z,19.90
2018-04-24T04:48:05.504Z,18.50
2018-04-24T04:49:05.536Z,20.20
2018-04-24T04:50:05.570Z,18.70
2018-04-24T04:51:05.603Z,18.60
2018-04-24T04:52:05.636Z,19.80
2018-04-24T04:53:05.670Z,19.20
2018-04-24T04:54:05.703Z,18.90
2018-04-24T04:55:05.735Z,18.90
2018-04-24T04:56:05.856Z,18.80
2018-04-24T04:57:05.801Z,18.80
2018-04-24T04:58:05.835Z,18.00
2018-04-24T04:59:05.872Z,18.10
2018-04-24T05:00:05.904Z,18.30
2018-04-24T05:01:05.934Z,18.00
2018-04-24T05:02:05.968Z,17.90
2018-04-24T05:03:06.001Z,18.40
2018-04-24T05:04:06.038Z,18.70
2018-04-24T05:05:06.068Z,19.10
2018-04-24T05:06:06.103Z,19.80
2018-04-24T05:07:06.135Z,19.20
2018-04-24T05:08:06.168Z,22.10
2018-04-24T05:09:06.204Z,22.00
2018-04-24T05:10:06.234Z,19.50
2018-04-24T05:11:06.267Z,16.70
2018-04-24T05:12:06.380Z,16.40
2018-04-24T05:13:06.339Z,20.30
2018-04-24T05:14:06.366Z,20.20
2018-04-24T05:15:06.401Z,21.20
2018-04-24T05:16:06.435Z,21.80
2018-04-24T05:17:06.469Z,20.70
2018-04-24T05:18:06.501Z,20.50
2018-04-24T05:19:06.544Z,18.40
2018-04-24T05:20:06.688Z,18.50
2018-04-24T05:21:06.601Z,18.70
2018-04-24T05:22:06.634Z,17.30
2018-04-24T05:23:06.667Z,16.50
2018-04-24T05:24:06.701Z,16.80
2018-04-24T05:25:06.735Z,17.10
2018-04-24T05:26:06.773Z,16.60
2018-04-24T05:27:06.803Z,17.60
2018-04-24T05:28:06.838Z,17.00
2018-04-24T05:29:06.870Z,17.70
2018-04-24T05:30:06.904Z,18.00
2018-04-24T05:31:06.942Z,17.00
2018-04-24T05:32:06.972Z,15.60
2018-04-24T05:33:07.008Z,15.50
2018-04-24T05:34:07.038Z,16.50
2018-04-24T05:35:07.074Z,16.60
2018-04-24T05:36:07.108Z,17.00
2018-04-24T05:37:07.141Z,17.90
2018-04-24T05:38:07.174Z,17.10
2018-04-24T05:39:07.208Z,17.50
2018-04-24T05:40:07.247Z,16.70
2018-04-24T05:41:07.276Z,18.30
2018-04-24T05:42:07.309Z,17.50
2018-04-24T05:43:07.345Z,17.80
2018-04-24T05:44:07.379Z,16.10
2018-04-24T05:45:07.413Z,16.10
2018-04-24T05:46:07.448Z,17.60
2018-04-24T05:47:07.482Z,17.20
2018-04-24T05:48:07.520Z,16.60
2018-04-24T05:49:07.548Z,16.00
2018-04-24T05:50:07.583Z,17.30
2018-04-24T05:51:07.617Z,17.20
2018-04-24T05:52:07.653Z,17.10
2018-04-24T05:53:07.777Z,16.70
2018-04-24T05:54:07.718Z,17.60
2018-04-24T05:55:07.755Z,16.70
2018-04-24T05:56:07.787Z,17.10
2018-04-24T05:57:07.822Z,16.70
2018-04-24T05:58:07.855Z,17.60
2018-04-24T05:59:07.897Z,17.30
2018-04-24T06:00:07.925Z,17.40
2018-04-24T06:01:07.957Z,17.30
2018-04-24T06:02:07.992Z,18.20
2018-04-24T06:03:08.047Z,17.00
2018-04-24T06:04:08.062Z,16.00
2018-04-24T06:05:08.095Z,17.60
2018-04-24T06:06:08.128Z,17.70
2018-04-24T06:07:08.168Z,17.70
2018-04-24T06:08:08.198Z,16.90
2018-04-24T06:09:08.235Z,16.90
2018-04-24T06:10:08.265Z,16.70
2018-04-24T06:11:08.301Z,18.70
2018-04-24T06:12:08.335Z,18.70
2018-04-24T06:13:08.369Z,16.50
2018-04-24T06:14:08.409Z,16.50
2018-04-24T06:15:08.494Z,15.60
2018-04-24T06:16:08.474Z,15.90
2018-04-24T06:17:08.505Z,16.90
2018-04-24T06:18:08.541Z,14.90
2018-04-24T06:19:08.577Z,16.00
2018-04-24T06:20:08.615Z,15.60
2018-04-24T06:21:08.645Z,16.30
2018-04-24T06:22:08.682Z,16.30
2018-04-24T06:23:08.715Z,15.40
2018-04-24T06:24:08.749Z,16.20
2018-04-24T06:25:08.784Z,16.10
2018-04-24T06:26:08.819Z,16.00
2018-04-24T06:27:08.852Z,15.00
2018-04-24T06:28:08.886Z,15.40
2018-04-24T06:29:08.921Z,15.30
2018-04-24T06:30:08.955Z,15.70
2018-04-24T06:31:08.991Z,16.40
2018-04-24T06:32:09.033Z,16.60
2018-04-24T06:33:09.060Z,16.30
2018-04-24T06:34:09.095Z,16.20
2018-04-24T06:35:09.129Z,16.70
2018-04-24T06:36:09.165Z,17.10
2018-04-24T06:37:09.199Z,15.40
2018-04-24T06:38:09.233Z,16.10
2018-04-24T06:39:09.269Z,16.60
2018-04-24T06:40:09.305Z,16.60
2018-04-24T06:41:09.338Z,16.30
2018-04-24T06:42:09.374Z,17.00
2018-04-24T06:43:09.410Z,16.30
2018-04-24T06:44:09.444Z,14.70
2018-04-24T06:45:09.480Z,15.70
2018-04-24T06:46:09.514Z,16.30
2018-04-24T06:47:09.554Z,14.10
2018-04-24T06:48:09.586Z,15.00
2018-04-24T06:49:09.622Z,14.10
2018-04-24T06:50:09.658Z,14.30
2018-04-24T06:51:09.694Z,14.20
2018-04-24T06:52:09.730Z,13.90
2018-04-24T06:53:09.766Z,13.60
2018-04-24T06:54:09.801Z,14.30
2018-04-24T06:55:09.837Z,13.50
2018-04-24T06:56:09.873Z,14.00
2018-04-24T06:57:09.907Z,13.50
2018-04-24T06:58:09.943Z,13.70
2018-04-24T06:59:09.980Z,12.90
2018-04-24T07:00:10.017Z,13.10
2018-04-24T07:01:10.052Z,14.20
2018-04-24T07:02:10.089Z,13.80
2018-04-24T07:03:10.124Z,14.50
2018-04-24T07:04:10.161Z,13.50
2018-04-24T07:05:10.197Z,14.60
2018-04-24T07:06:10.234Z,14.20
2018-04-24T07:07:10.268Z,13.70
2018-04-24T07:08:10.304Z,13.30
2018-04-24T07:09:10.340Z,12.30
2018-04-24T07:10:10.380Z,12.30
2018-04-24T07:11:10.411Z,12.00
2018-04-24T07:12:10.448Z,11.60
2018-04-24T07:13:10.487Z,10.80
2018-04-24T07:14:10.524Z,10.40
2018-04-24T07:15:10.558Z,10.10
2018-04-24T07:16:10.597Z,10.10
2018-04-24T07:17:10.629Z,9.90
2018-04-24T07:18:10.667Z,10.00
2018-04-24T07:19:10.703Z,8.70
2018-04-24T07:20:10.740Z,9.20
2018-04-24T07:21:10.776Z,8.40
2018-04-24T07:22:10.815Z,8.20
2018-04-24T07:23:10.850Z,8.30
2018-04-24T07:24:10.888Z,7.90
2018-04-24T07:25:10.924Z,8.00
2018-04-24T07:26:10.961Z,9.30
2018-04-24T07:27:11.044Z,8.40
2018-04-24T07:28:11.034Z,8.80
2018-04-24T07:29:11.070Z,8.40
2018-04-24T07:30:11.198Z,7.90
2018-04-24T07:31:11.145Z,7.90
2018-04-24T07:32:11.181Z,8.00
2018-04-24T07:33:11.218Z,8.70
2018-04-24T07:34:11.255Z,8.20
2018-04-24T07:35:11.293Z,8.70
2018-04-24T07:36:11.330Z,8.50
2018-04-24T07:37:11.365Z,8.40
2018-04-24T07:38:11.406Z,8.20
2018-04-24T07:39:11.440Z,9.20
2018-04-24T07:40:11.478Z,8.40
2018-04-24T07:41:11.536Z,8.30
2018-04-24T07:42:11.551Z,8.50
2018-04-24T07:43:11.588Z,8.40
2018-04-24T07:44:11.625Z,7.80
2018-04-24T07:45:11.663Z,7.40
2018-04-24T07:46:11.699Z,6.80
2018-04-24T07:47:11.736Z,7.70
2018-04-24T07:48:11.773Z,7.70
2018-04-24T07:49:11.810Z,7.60
2018-04-24T07:50:11.848Z,7.70
2018-04-24T07:51:11.884Z,8.20
2018-04-24T07:52:11.923Z,6.50
2018-04-24T07:53:11.959Z,6.70
2018-04-24T07:54:11.997Z,6.20
2018-04-24T07:55:12.036Z,6.70
2018-04-24T07:56:12.071Z,5.90
2018-04-24T07:57:12.109Z,6.40
2018-04-24T07:58:12.146Z,6.00
2018-04-24T07:59:12.189Z,6.10
2018-04-24T08:00:12.222Z,6.00
2018-04-24T08:01:12.258Z,6.30
2018-04-24T08:02:12.297Z,6.00
2018-04-24T08:03:12.335Z,5.90
2018-04-24T08:04:12.371Z,5.70
2018-04-24T08:05:12.411Z,6.00
2018-04-24T08:06:12.448Z,6.50
2018-04-24T08:07:12.489Z,6.30
2018-04-24T08:08:12.531Z,6.30
2018-04-24T08:09:12.561Z,6.50
2018-04-24T08:10:12.600Z,6.00
2018-04-24T08:11:12.636Z,6.70
2018-04-24T08:12:12.674Z,6.00
2018-04-24T08:13:12.711Z,5.90
2018-04-24T08:14:12.751Z,6.60
2018-04-24T08:15:12.790Z,5.60
2018-04-24T08:16:12.827Z,5.60
2018-04-24T08:17:12.888Z,6.40
2018-04-24T08:18:12.904Z,6.40
2018-04-24T08:19:12.942Z,6.20
2018-04-24T08:20:12.981Z,6.40
2018-04-24T08:21:13.018Z,5.90
2018-04-24T08:22:13.056Z,5.90
2018-04-24T08:23:13.099Z,6.00
2018-04-24T08:24:13.134Z,5.50
2018-04-24T08:25:13.171Z,6.70
2018-04-24T08:26:13.212Z,6.10
2018-04-24T08:27:13.253Z,6.00
2018-04-24T08:28:13.289Z,5.60
2018-04-24T08:29:13.326Z,6.20
2018-04-24T08:30:13.367Z,5.90
2018-04-24T08:31:13.406Z,5.90
2018-04-24T08:32:13.444Z,5.80
2018-04-24T08:33:13.484Z,6.00
2018-04-24T08:34:13.524Z,5.70
2018-04-24T08:35:13.565Z,6.40
2018-04-24T08:36:13.603Z,6.40
2018-04-24T08:37:13.646Z,6.00
2018-04-24T08:38:13.682Z,6.30
2018-04-24T08:39:13.722Z,5.50
2018-04-24T08:40:13.761Z,5.70
2018-04-24T08:41:13.801Z,6.30
2018-04-24T08:42:13.842Z,5.90
2018-04-24T08:43:13.881Z,6.50
2018-04-24T08:44:13.925Z,6.20
2018-04-24T08:45:13.962Z,6.60
2018-04-24T08:46:14.061Z,6.20
2018-04-24T08:47:14.043Z,6.20
2018-04-24T08:48:14.083Z,5.70
2018-04-24T08:49:14.122Z,6.10
2018-04-24T08:50:14.162Z,6.00
2018-04-24T08:51:14.203Z,5.50
2018-04-24T08:52:14.247Z,6.50
2018-04-24T08:53:14.283Z,6.20
2018-04-24T08:54:14.324Z,6.40
2018-04-24T08:55:14.365Z,6.00
2018-04-24T08:56:14.409Z,5.50
2018-04-24T08:57:14.448Z,5.70
2018-04-24T08:58:14.486Z,5.70
2018-04-24T08:59:14.531Z,6.10
2018-04-24T09:00:14.568Z,6.30
2018-04-24T09:01:14.607Z,6.00
2018-04-24T09:02:14.648Z,5.20
2018-04-24T09:03:14.689Z,5.90
2018-04-24T09:04:14.730Z,6.20
2018-04-24T09:05:14.769Z,6.50
2018-04-24T09:06:14.810Z,6.10
2018-04-24T09:07:14.852Z,6.70
2018-04-24T09:08:14.892Z,6.50
2018-04-24T09:09:14.933Z,6.20
2018-04-24T09:10:14.975Z,5.90
2018-04-24T09:11:15.015Z,6.80
2018-04-24T09:12:15.057Z,6.10
2018-04-24T09:13:15.096Z,6.80
2018-04-24T09:14:15.139Z,6.90
2018-04-24T09:15:15.180Z,6.90
2018-04-24T09:16:15.222Z,7.10
2018-04-24T09:17:15.268Z,6.70
2018-04-24T09:18:15.305Z,7.30
2018-04-24T09:19:15.344Z,7.70
2018-04-24T09:20:15.385Z,7.60
2018-04-24T09:21:15.427Z,7.00
2018-04-24T09:22:15.467Z,6.70
2018-04-24T09:23:15.507Z,7.00
2018-04-24T09:24:15.548Z,7.20
2018-04-24T09:25:15.589Z,7.30
2018-04-24T09:26:15.629Z,7.90
2018-04-24T09:27:15.736Z,7.90
2018-04-24T09:28:15.718Z,8.00
2018-04-24T09:29:15.752Z,7.80
2018-04-24T09:30:15.797Z,7.30
2018-04-24T09:31:15.836Z,7.10
2018-04-24T09:32:15.878Z,7.10
2018-04-24T09:33:15.918Z,6.60
2018-04-24T09:34:15.962Z,7.80
2018-04-24T09:35:16.002Z,5.90
2018-04-24T09:36:16.042Z,5.60
2018-04-24T09:37:16.084Z,4.90
2018-04-24T09:38:16.126Z,3.80
2018-04-24T09:39:16.168Z,3.90
2018-04-24T09:40:16.209Z,4.20
2018-04-24T09:41:16.252Z,4.60
2018-04-24T09:42:16.295Z,4.30
2018-04-24T09:43:16.339Z,4.20
2018-04-24T09:44:16.379Z,5.30
2018-04-24T09:45:16.420Z,5.60
2018-04-24T09:46:16.463Z,5.90
2018-04-24T09:47:16.511Z,5.80
2018-04-24T09:48:16.550Z,5.10
2018-04-24T09:49:16.590Z,5.00
2018-04-24T09:50:16.639Z,4.70
2018-04-24T09:51:16.759Z,4.90
2018-04-24T09:52:16.724Z,5.40
2018-04-24T09:53:16.768Z,4.90
2018-04-24T09:54:16.813Z,5.40
2018-04-24T09:55:16.861Z,4.50
2018-04-24T09:56:16.906Z,5.00
2018-04-24T09:57:16.953Z,5.20
2018-04-24T09:58:17.000Z,4.50
2018-04-24T09:59:17.048Z,4.70
2018-04-24T10:00:17.097Z,4.90
2018-04-24T10:01:17.145Z,4.60
2018-04-24T10:02:17.215Z,5.20
2018-04-24T10:03:17.243Z,4.80
2018-04-24T10:04:17.288Z,4.80
2018-04-24T10:05:17.336Z,4.40
2018-04-24T10:06:17.384Z,5.30
2018-04-24T10:07:17.431Z,4.90
2018-04-24T10:08:17.479Z,5.30
2018-04-24T10:09:17.527Z,5.80
2018-04-24T10:10:17.575Z,4.80
2018-04-24T10:11:17.623Z,6.10
2018-04-24T10:12:17.671Z,5.10
2018-04-24T10:13:17.717Z,4.70
2018-04-24T10:14:17.764Z,5.90
2018-04-24T10:15:17.812Z,5.80
2018-04-24T10:16:17.861Z,6.40
2018-04-24T10:17:17.904Z,5.80
2018-04-24T10:18:17.950Z,5.80
2018-04-24T10:19:17.998Z,7.10
2018-04-24T10:20:18.047Z,6.60
2018-04-24T10:21:18.091Z,6.20
2018-04-24T10:22:18.139Z,5.70
2018-04-24T10:23:18.188Z,6.00
2018-04-24T10:24:18.237Z,5.90
2018-04-24T10:25:18.284Z,6.20
2018-04-24T10:26:18.332Z,6.20
2018-04-24T10:27:18.385Z,6.30
2018-04-24T10:28:18.428Z,5.70
2018-04-24T10:29:18.475Z,6.60
2018-04-24T10:30:18.523Z,6.10
2018-04-24T10:31:18.570Z,4.90
2018-04-24T10:32:18.621Z,6.00
2018-04-24T10:33:18.663Z,5.70
2018-04-24T10:34:18.710Z,5.30
2018-04-24T10:35:18.758Z,5.10
2018-04-24T10:36:18.804Z,5.40
2018-04-24T10:37:18.851Z,5.50
2018-04-24T10:38:18.899Z,5.10
2018-04-24T10:39:18.944Z,5.10
2018-04-24T10:40:18.992Z,5.30
2018-04-24T10:41:19.039Z,5.40
2018-04-24T10:42:19.085Z,5.10
2018-04-24T10:43:19.132Z,5.10
2018-04-24T10:44:19.180Z,4.80
2018-04-24T10:45:19.226Z,5.70
2018-04-24T10:46:19.275Z,5.00
2018-04-24T10:47:19.326Z,5.10
2018-04-24T10:48:19.373Z,5.10
2018-04-24T10:49:19.420Z,4.60
2018-04-24T10:50:19.474Z,4.90
2018-04-24T10:51:19.518Z,4.90
2018-04-24T10:52:19.569Z,5.10
2018-04-24T10:53:19.616Z,4.90
2018-04-24T10:54:19.665Z,5.00
2018-04-24T10:55:19.714Z,4.90
2018-04-24T10:56:19.761Z,5.30
2018-04-24T10:57:19.808Z,4.70
2018-04-24T10:58:19.857Z,5.10
2018-04-24T10:59:19.910Z,4.80
2018-04-24T11:00:19.951Z,5.00
2018-04-24T11:01:19.997Z,4.60
2018-04-24T11:02:20.043Z,5.20
2018-04-24T11:03:20.090Z,4.60
2018-04-24T11:04:20.137Z,4.40
2018-04-24T11:05:20.183Z,4.10
2018-04-24T11:06:20.229Z,4.60
2018-04-24T11:07:20.276Z,4.40
2018-04-24T11:08:20.323Z,4.70
2018-04-24T11:09:20.370Z,4.50
2018-04-24T11:10:20.418Z,4.90
2018-04-24T11:11:20.465Z,4.70
2018-04-24T11:12:20.512Z,4.90
2018-04-24T11:13:20.561Z,4.80
2018-04-24T11:14:20.610Z,4.30
2018-04-24T11:15:20.658Z,4.90
2018-04-24T11:16:20.706Z,4.70
2018-04-24T11:17:20.757Z,4.60
2018-04-24T11:18:20.801Z,5.10
2018-04-24T11:19:20.848Z,5.00
2018-04-24T11:20:20.895Z,5.00
2018-04-24T11:21:20.952Z,4.90
2018-04-24T11:22:20.992Z,4.90
2018-04-24T11:23:21.041Z,5.20
2018-04-24T11:24:21.090Z,5.30
2018-04-24T11:25:21.140Z,5.70
2018-04-24T11:26:21.186Z,5.70
2018-04-24T11:27:21.240Z,6.10
2018-04-24T11:28:21.286Z,5.70
2018-04-24T11:29:21.335Z,5.50
2018-04-24T11:30:21.462Z,5.40
2018-04-24T11:31:21.434Z,5.20
2018-04-24T11:32:21.487Z,6.10
2018-04-24T11:33:21.533Z,5.80
2018-04-24T11:34:21.621Z,5.20
2018-04-24T11:35:21.634Z,5.30
2018-04-24T11:36:21.684Z,5.60
2018-04-24T11:37:21.734Z,6.00
2018-04-24T11:38:21.786Z,5.20
2018-04-24T11:39:21.837Z,5.20
2018-04-24T11:40:21.887Z,5.10
2018-04-24T11:41:22.003Z,4.30
2018-04-24T11:42:21.990Z,5.20
2018-04-24T11:43:22.042Z,5.30
2018-04-24T11:44:22.097Z,4.60
2018-04-24T11:45:22.145Z,4.90
2018-04-24T11:46:22.196Z,4.80
2018-04-24T11:47:22.248Z,5.30
2018-04-24T11:48:22.298Z,5.40
2018-04-24T11:49:22.348Z,4.90
2018-04-24T11:50:22.400Z,5.00
2018-04-24T11:51:22.456Z,5.20
2018-04-24T11:52:22.499Z,5.80
2018-04-24T11:53:22.550Z,5.00
2018-04-24T11:54:22.599Z,5.10
2018-04-24T11:55:22.649Z,5.40
2018-04-24T11:56:22.699Z,4.90
2018-04-24T11:57:22.748Z,5.30
2018-04-24T11:58:22.798Z,5.50
2018-04-24T11:59:22.847Z,5.00
2018-04-24T12:00:22.899Z,5.70
2018-04-24T12:01:22.947Z,5.20
2018-04-24T12:02:22.998Z,5.90
2018-04-24T12:03:23.050Z,5.30
2018-04-24T12:04:23.101Z,5.20
2018-04-24T12:05:23.151Z,5.00
2018-04-24T12:06:23.203Z,5.40
2018-04-24T12:07:23.253Z,5.30
2018-04-24T12:08:23.303Z,4.90
2018-04-24T12:09:23.355Z,5.50
2018-04-24T12:10:23.407Z,5.30
2018-04-24T12:11:23.457Z,6.00
2018-04-24T12:12:23.508Z,6.00
2018-04-24T12:13:23.559Z,5.30
2018-04-24T12:14:23.612Z,6.00
2018-04-24T12:15:23.662Z,5.90
2018-04-24T12:16:23.719Z,5.30
2018-04-24T12:17:23.764Z,5.70
2018-04-24T12:18:23.815Z,5.80
2018-04-24T12:19:23.869Z,5.40
2018-04-24T12:20:23.920Z,5.00
2018-04-24T12:21:23.973Z,5.20
2018-04-24T12:22:24.025Z,5.30
2018-04-24T12:23:24.080Z,4.30
2018-04-24T12:24:24.144Z,4.50
2018-04-24T12:25:24.186Z,5.10
2018-04-24T12:26:24.239Z,5.40
2018-04-24T12:27:24.290Z,5.10
2018-04-24T12:28:24.341Z,5.40
2018-04-24T12:29:24.393Z,4.60
2018-04-24T12:30:24.446Z,5.50
2018-04-24T12:31:24.499Z,5.50
2018-04-24T12:32:24.555Z,5.60
2018-04-24T12:33:24.603Z,5.70
2018-04-24T12:34:24.659Z,5.50
2018-04-24T12:35:24.710Z,4.80
2018-04-24T12:36:24.764Z,5.40
2018-04-24T12:37:24.817Z,5.20
2018-04-24T12:38:24.873Z,5.50
2018-04-24T12:39:24.929Z,4.30
2018-04-24T12:40:24.980Z,4.40
2018-04-24T12:41:25.033Z,4.80
2018-04-24T12:42:25.089Z,4.80
2018-04-24T12:43:25.141Z,4.60
2018-04-24T12:44:25.196Z,4.60
2018-04-24T12:45:25.251Z,4.30
2018-04-24T12:46:25.311Z,5.00
2018-04-24T12:47:25.359Z,4.00
2018-04-24T12:48:25.414Z,4.40
2018-04-24T12:49:25.539Z,3.90
2018-04-24T12:50:25.523Z,4.20
2018-04-24T12:51:25.578Z,3.50
2018-04-24T12:52:25.633Z,4.10
2018-04-24T12:53:25.688Z,3.60
2018-04-24T12:54:25.747Z,3.70
2018-04-24T12:55:25.800Z,3.60
2018-04-24T12:56:25.857Z,3.70
2018-04-24T12:57:25.911Z,4.00
2018-04-24T12:58:25.966Z,3.70
2018-04-24T12:59:26.022Z,3.50
2018-04-24T13:00:26.076Z,3.30
2018-04-24T13:01:26.130Z,3.80
2018-04-24T13:02:26.185Z,4.00
2018-04-24T13:03:26.242Z,4.20
2018-04-24T13:04:26.299Z,4.20
2018-04-24T13:05:26.348Z,4.30